Khosta (Sochi), Russia
Current Conditions -  °F | °C
As of 5:30 PM on Friday 28 Nov 2014 (Local Time) from URSS Reporting Station
Broken Clouds Broken Clouds  
Wind Chill: 44°   Ceiling: 11000
Heat Index: 48°   Visibility: 6mi
Dew Point: 37°   Wind: 9mph
Humidity: 66%   Direction: 330°NNW
Pressure: 30.3"   Gusts: NA
Location:  43.57°N, 39.75°E
Report Text: URSS 281430Z 33004MPS 9999 BKN110 09/03 Q1026 NOSIG RMKR06/32004MPS QFE768 02000070 06000070
Loading
Personal Weather Stations






























Interactive Weather Map New forecast layout! Learn more

10-Day Weather Forecast

Advertisements
Track Severe Weather on mobile